San Juan Capistrano, CA

4:41 AM PST on December 18, 2014 (GMT -0800)
Covenant Hills | Change Station
CLOSE
Current Station
Personal Weather Station
Location: Ladera Ranch, CA
Elevation: 427 ft
Nearby Weather Stations

Elev 427 ft 33.53 °N, 117.64 °W | Updated 51 seconds ago

Mostly Cloudy
Mostly Cloudy
51.5 °F
Feels Like 51.5 °F
N
0.0
Wind Variable Wind from SE
Gusts 0.0 mph

Today
High -- | Low -- °F
--% Chance of Precip.
Yesterday
High -- | Low -- °F
Precip. -- in
6:49 AM 4:45 PM
Waning Crescent, 15% visible
Pressure 30.38 in
Visibility 8.0 miles
Clouds Few 6500 ft
Dew Point 48 °F
Humidity 86%
Rainfall 0.00 in
Snow Depth Not available.
UV 0 out of 12
Pollen .90 out of 12
Air Quality Not available.
Flu Activity Not available.
METAR KNXF 181156Z AUTO 05006KT 8SM FEW065 11/09 A3012 RMK AO2 SLP286 60000 70008 T01110089 10128 20111 50005 $

More Conditions Fewer Conditions

Pressure 30.38 in
Visibility 8.0 miles
Clouds Few 6500 ft
Dew Point 48 °F
Humidity 86%
Rainfall 0.00 in
Snow Depth Not available.
UV 0 out of 12
Pollen .90 out of 12
Air Quality Not available.
Flu Activity Not available.
METAR KNXF 181156Z AUTO 05006KT 8SM FEW065 11/09 A3012 RMK AO2 SLP286 60000 70008 T01110089 10128 20111 50005 $

More Conditions Fewer Conditions

10-Day Weather Forecast

Almanac

Astronomy

Dec. 18, 2014 Rise Set
Actual Time
Civil Twilight
Nautical Twilight
Astronomical Twilight
Moon
Length of Visible Light
Length of Day
Tomorrow will be .
, % of the Moon is Illuminated

Today's Extremes

State Highs State Lows

Community

WunderPhotos

Upload Photos

1,778,923 photos uploaded!

WunderBlogs® & News

Nearby

Air Quality

  Air Quality AQ Index Pollutant
Not available.

Snow Depth

Station Depth Elevation

Earthquake Activity

City Distance Mag. Time & Date
Minimum magnitude displayed is 2.5.

Coastal Water Temperatures

Place Temperature

Nearby Weather Stations